Time;durP1;ratioP1;P1;durP2;ratioP2;P2;SDS_P1;SDS_P2;PMS_P1;PMS_P2;Temp;Humidity;BMP_temperature;BMP_pressure;BME280_temperature;BME280_humidity;BME280_pressure;Samples;Min_cycle;Max_cycle;Signal;HPM_P1;HPM_P2
2021/03/22 00:01:18;;;;;;;22.15;8.02;;;;;;;;;;4997448;28;20030;-64
2021/03/22 00:03:43;;;;;;;39.53;9.35;;;;;;;;;;5006676;28;20041;-65
2021/03/22 00:06:09;;;;;;;20.13;9.57;;;;;;;;;;4994639;28;20145;-65
2021/03/22 00:08:34;;;;;;;22.55;6.72;;;;;;;;;;5003460;28;20038;-65
2021/03/22 00:11:00;;;;;;;20.80;8.95;;;;;;;;;;5001013;28;20096;-65
2021/03/22 00:13:26;;;;;;;24.33;7.25;;;;;;;;;;5005156;28;20050;-65
2021/03/22 00:15:53;;;;;;;24.80;8.05;;;;;;;;;;4993756;28;20034;-65
2021/03/22 00:18:21;;;;;;;28.35;9.18;;;;;;;;;;5005362;28;20046;-65
2021/03/22 00:20:46;;;;;;;25.60;7.85;;;;;;;;;;4999276;28;20022;-65
2021/03/22 00:23:12;;;;;;;21.38;7.90;;;;;;;;;;4997640;28;20773;-65
2021/03/22 00:25:37;;;;;;;23.70;7.18;;;;;;;;;;5006370;28;20038;-64
2021/03/22 00:28:03;;;;;;;22.67;7.43;;;;;;;;;;4993795;28;20021;-65
2021/03/22 00:30:30;;;;;;;29.73;8.15;;;;;;;;;;5003710;28;20656;-65
2021/03/22 00:32:55;;;;;;;22.42;7.20;;;;;;;;;;4999903;28;20120;-66
2021/03/22 00:35:21;;;;;;;18.60;6.93;;;;;;;;;;4996447;28;20101;-65
2021/03/22 00:37:47;;;;;;;23.33;7.50;;;;;;;;;;5006408;28;20054;-65
2021/03/22 00:40:13;;;;;;;23.95;7.50;;;;;;;;;;4994459;28;20041;-66
2021/03/22 00:42:39;;;;;;;26.98;7.55;;;;;;;;;;5001892;28;20031;-65
2021/03/22 00:45:05;;;;;;;25.92;7.45;;;;;;;;;;5001542;28;20525;-65
2021/03/22 00:47:30;;;;;;;54.33;9.00;;;;;;;;;;4993578;28;20034;-65
2021/03/22 00:49:56;;;;;;;31.60;8.27;;;;;;;;;;5006448;28;20048;-65
2021/03/22 00:52:21;;;;;;;19.90;7.95;;;;;;;;;;4989449;28;20475;-65
2021/03/22 00:54:46;;;;;;;33.13;8.32;;;;;;;;;;4999382;28;20038;-65
2021/03/22 00:57:12;;;;;;;31.48;9.23;;;;;;;;;;4996680;28;20475;-64
2021/03/22 00:59:37;;;;;;;28.23;9.88;;;;;;;;;;5005884;28;20060;-64
2021/03/22 01:02:04;;;;;;;30.27;8.43;;;;;;;;;;4992981;28;20052;-65
2021/03/22 01:04:29;;;;;;;19.15;7.68;;;;;;;;;;5002960;28;20030;-65
2021/03/22 01:06:54;;;;;;;18.58;7.47;;;;;;;;;;4993190;28;20368;-65
2021/03/22 01:09:20;;;;;;;26.13;7.68;;;;;;;;;;4993005;28;20121;-65
2021/03/22 01:11:45;;;;;;;27.95;7.38;;;;;;;;;;4993435;28;20069;-64
2021/03/22 01:14:11;;;;;;;25.20;7.60;;;;;;;;;;4993718;28;20130;-64
2021/03/22 01:16:37;;;;;;;33.22;9.18;;;;;;;;;;4993509;28;20042;-65
2021/03/22 01:19:07;;;;;;;26.98;7.78;;;;;;;;;;4993607;28;20130;-64
2021/03/22 01:21:35;;;;;;;18.30;6.82;;;;;;;;;;4993491;28;20037;-64
2021/03/22 01:24:00;;;;;;;25.65;7.38;;;;;;;;;;4993601;28;20042;-65
2021/03/22 01:26:32;;;;;;;25.58;7.35;;;;;;;;;;4993200;28;20022;-65
2021/03/22 01:28:57;;;;;;;36.10;7.80;;;;;;;;;;4993177;28;20579;-64
2021/03/22 01:31:23;;;;;;;26.27;7.50;;;;;;;;;;4993454;28;20109;-64
2021/03/22 01:33:50;;;;;;;23.33;6.80;;;;;;;;;;4992242;28;20463;-64
2021/03/22 01:36:19;;;;;;;27.60;7.57;;;;;;;;;;4993395;28;20035;-65
2021/03/22 01:38:44;;;;;;;17.98;6.50;;;;;;;;;;4990521;28;20415;-65
2021/03/22 01:41:16;;;;;;;17.80;6.47;;;;;;;;;;4991658;28;20032;-64
2021/03/22 01:43:53;;;;;;;34.78;7.05;;;;;;;;;;4993013;28;20145;-64
2021/03/22 01:46:19;;;;;;;23.92;6.97;;;;;;;;;;4993012;28;20438;-65
2021/03/22 01:48:44;;;;;;;28.98;8.45;;;;;;;;;;4993373;28;20030;-65
2021/03/22 01:51:10;;;;;;;26.05;7.32;;;;;;;;;;4993530;28;20369;-64
2021/03/22 01:53:35;;;;;;;21.80;7.72;;;;;;;;;;4993410;28;20379;-66
2021/03/22 01:56:12;;;;;;;20.83;6.93;;;;;;;;;;4993188;28;20414;-64
2021/03/22 01:58:37;;;;;;;23.27;6.68;;;;;;;;;;4992962;28;20428;-64
2021/03/22 02:01:03;;;;;;;24.95;7.28;;;;;;;;;;4988707;28;20038;-65
2021/03/22 02:03:28;;;;;;;27.17;7.22;;;;;;;;;;4984516;28;20042;-64
2021/03/22 02:05:53;;;;;;;18.92;6.50;;;;;;;;;;4992459;28;20014;-65
2021/03/22 02:08:28;;;;;;;20.70;6.70;;;;;;;;;;4992911;28;20059;-64
2021/03/22 02:10:53;;;;;;;28.20;7.47;;;;;;;;;;4984308;28;20030;-65
2021/03/22 02:13:21;;;;;;;25.05;8.40;;;;;;;;;;4991346;28;20100;-64
2021/03/22 02:15:48;;;;;;;19.50;7.72;;;;;;;;;;4993007;28;20034;-64
2021/03/22 02:18:40;;;;;;;24.42;7.88;;;;;;;;;;4992961;28;20124;-64
2021/03/22 02:21:24;;;;;;;19.85;7.75;;;;;;;;;;4995008;28;20491;-64
2021/03/22 02:24:08;;;;;;;30.20;9.32;;;;;;;;;;4996227;28;20410;-64
2021/03/22 02:26:45;;;;;;;34.47;8.52;;;;;;;;;;4996464;28;20035;-64
2021/03/22 02:29:10;;;;;;;21.40;6.85;;;;;;;;;;4995264;28;20416;-65
2021/03/22 02:31:55;;;;;;;32.92;8.73;;;;;;;;;;4996398;28;20069;-64
2021/03/22 02:34:39;;;;;;;29.40;7.88;;;;;;;;;;4996518;28;20030;-64
2021/03/22 02:37:05;;;;;;;24.27;7.53;;;;;;;;;;4996219;28;20035;-64
2021/03/22 02:39:37;;;;;;;40.45;8.88;;;;;;;;;;4996106;28;20049;-64
2021/03/22 02:42:04;;;;;;;36.92;8.68;;;;;;;;;;4995917;28;20030;-64
2021/03/22 02:44:32;;;;;;;25.33;8.13;;;;;;;;;;4996232;28;20073;-64
2021/03/22 02:47:01;;;;;;;32.88;8.45;;;;;;;;;;4996092;28;20046;-64
2021/03/22 02:49:27;;;;;;;35.53;9.63;;;;;;;;;;4996270;28;20026;-64
2021/03/22 02:51:55;;;;;;;24.80;7.75;;;;;;;;;;4995990;28;20040;-64
2021/03/22 02:54:30;;;;;;;26.50;8.43;;;;;;;;;;4996166;28;20038;-64
2021/03/22 02:56:59;;;;;;;28.42;8.50;;;;;;;;;;4995851;28;20065;-64
2021/03/22 02:59:29;;;;;;;29.13;8.75;;;;;;;;;;4996102;28;20045;-64
2021/03/22 03:02:02;;;;;;;22.45;7.93;;;;;;;;;;4995481;28;20022;-64
2021/03/22 03:04:29;;;;;;;25.33;7.75;;;;;;;;;;4994759;28;20038;-64
2021/03/22 03:06:59;;;;;;;29.25;8.07;;;;;;;;;;4995674;28;20084;-64
2021/03/22 03:09:26;;;;;;;33.35;8.07;;;;;;;;;;4995828;28;20114;-64
2021/03/22 03:11:52;;;;;;;28.70;8.75;;;;;;;;;;4995495;28;20031;-64
2021/03/22 03:14:18;;;;;;;23.52;7.15;;;;;;;;;;4995425;28;20486;-65
2021/03/22 03:16:43;;;;;;;36.10;8.75;;;;;;;;;;4995489;28;20098;-65
2021/03/22 03:19:08;;;;;;;26.13;8.25;;;;;;;;;;4995592;28;20053;-65
2021/03/22 03:21:34;;;;;;;18.95;6.95;;;;;;;;;;4995430;28;20088;-64
2021/03/22 03:24:00;;;;;;;26.63;7.55;;;;;;;;;;4995579;28;20148;-64
2021/03/22 03:26:25;;;;;;;28.92;8.82;;;;;;;;;;4995333;28;20034;-64
2021/03/22 03:28:51;;;;;;;33.90;8.57;;;;;;;;;;4995485;28;20034;-64
2021/03/22 03:31:16;;;;;;;19.33;8.63;;;;;;;;;;4994600;28;20380;-64
2021/03/22 03:33:41;;;;;;;32.25;7.78;;;;;;;;;;4995056;28;20045;-64
2021/03/22 03:36:07;;;;;;;25.92;8.52;;;;;;;;;;4995199;28;20097;-65
2021/03/22 03:38:32;;;;;;;31.90;9.15;;;;;;;;;;4995198;28;20361;-64
2021/03/22 03:40:57;;;;;;;29.63;9.13;;;;;;;;;;4995175;28;20422;-64
2021/03/22 03:43:23;;;;;;;33.00;9.18;;;;;;;;;;4995155;28;20034;-64
2021/03/22 03:45:49;;;;;;;31.08;9.27;;;;;;;;;;4994659;28;20076;-64
2021/03/22 03:48:17;;;;;;;27.00;8.93;;;;;;;;;;4994993;28;20034;-64
2021/03/22 03:50:43;;;;;;;24.92;8.25;;;;;;;;;;4994961;28;20030;-64
2021/03/22 03:53:09;;;;;;;33.42;9.32;;;;;;;;;;4994907;28;20021;-64
2021/03/22 03:55:34;;;;;;;26.20;7.75;;;;;;;;;;4994917;28;20038;-64
2021/03/22 03:57:59;;;;;;;27.88;8.65;;;;;;;;;;4994708;28;20042;-64
2021/03/22 04:00:25;;;;;;;23.23;7.35;;;;;;;;;;4995219;28;20019;-65
2021/03/22 04:02:51;;;;;;;26.42;7.97;;;;;;;;;;4994362;28;20582;-64
2021/03/22 04:05:16;;;;;;;28.27;8.15;;;;;;;;;;4994709;28;20129;-64
2021/03/22 04:07:42;;;;;;;26.02;7.70;;;;;;;;;;4994580;28;20380;-64
2021/03/22 04:10:07;;;;;;;29.38;8.30;;;;;;;;;;4994604;28;20096;-64
2021/03/22 04:12:32;;;;;;;27.80;8.48;;;;;;;;;;4994440;28;20066;-64
2021/03/22 04:14:58;;;;;;;25.48;9.13;;;;;;;;;;4994424;28;20046;-64
2021/03/22 04:17:23;;;;;;;38.60;8.27;;;;;;;;;;4993711;28;20049;-64
2021/03/22 04:19:48;;;;;;;32.67;8.35;;;;;;;;;;4994566;28;20472;-64
2021/03/22 04:22:14;;;;;;;26.35;7.53;;;;;;;;;;4994316;28;20033;-64
2021/03/22 04:24:39;;;;;;;23.60;7.78;;;;;;;;;;4994434;28;20034;-64
2021/03/22 04:27:04;;;;;;;26.63;7.97;;;;;;;;;;4994187;28;20042;-64
2021/03/22 04:29:30;;;;;;;18.55;7.75;;;;;;;;;;4994401;28;20019;-64
2021/03/22 04:31:55;;;;;;;20.50;8.02;;;;;;;;;;4994104;28;20467;-64
2021/03/22 04:34:20;;;;;;;32.35;7.97;;;;;;;;;;4994244;28;20041;-64
2021/03/22 04:36:45;;;;;;;24.77;7.53;;;;;;;;;;4994137;28;20451;-64
2021/03/22 04:39:11;;;;;;;27.55;7.82;;;;;;;;;;4994132;28;20049;-64
2021/03/22 04:41:37;;;;;;;32.92;7.82;;;;;;;;;;4994019;28;20531;-64
2021/03/22 04:44:03;;;;;;;29.67;8.93;;;;;;;;;;4993110;28;20372;-64
2021/03/22 04:46:29;;;;;;;27.13;7.80;;;;;;;;;;4994024;28;20034;-64
2021/03/22 04:48:55;;;;;;;32.97;9.20;;;;;;;;;;4994085;28;20088;-64
2021/03/22 04:51:20;;;;;;;24.85;8.90;;;;;;;;;;4993915;28;20473;-63
2021/03/22 04:53:45;;;;;;;28.55;9.95;;;;;;;;;;4993860;28;20045;-64
2021/03/22 04:56:10;;;;;;;42.80;9.10;;;;;;;;;;4993900;28;20364;-64
2021/03/22 04:58:36;;;;;;;26.95;8.30;;;;;;;;;;4993444;28;20034;-64
2021/03/22 05:01:02;;;;;;;39.17;10.07;;;;;;;;;;4993813;28;20066;-64
2021/03/22 05:03:27;;;;;;;28.15;8.90;;;;;;;;;;4993789;28;20045;-64
2021/03/22 05:05:53;;;;;;;29.77;8.10;;;;;;;;;;4993822;28;20058;-64
2021/03/22 05:08:19;;;;;;;27.17;9.00;;;;;;;;;;4993686;28;20412;-64
2021/03/22 05:10:46;;;;;;;25.70;7.85;;;;;;;;;;4993703;28;20034;-64
2021/03/22 05:13:13;;;;;;;25.15;7.88;;;;;;;;;;4993563;28;20029;-64
2021/03/22 05:15:39;;;;;;;27.40;8.10;;;;;;;;;;4993708;28;20636;-64
2021/03/22 05:18:05;;;;;;;26.08;8.40;;;;;;;;;;4993510;28;20043;-64
2021/03/22 05:20:35;;;;;;;32.28;8.20;;;;;;;;;;4993745;28;20423;-64
2021/03/22 05:23:02;;;;;;;17.60;7.22;;;;;;;;;;4993389;28;20031;-64
2021/03/22 05:25:28;;;;;;;26.27;7.97;;;;;;;;;;4993726;28;20038;-64
2021/03/22 05:27:53;;;;;;;31.92;8.80;;;;;;;;;;4993411;28;20109;-64
2021/03/22 05:30:20;;;;;;;29.73;7.97;;;;;;;;;;4993639;28;20053;-64
2021/03/22 05:32:45;;;;;;;23.77;7.88;;;;;;;;;;4993444;28;20391;-64
2021/03/22 05:35:12;;;;;;;23.30;8.90;;;;;;;;;;4993470;28;20027;-65
2021/03/22 05:37:38;;;;;;;30.45;8.18;;;;;;;;;;4993109;28;20050;-64
2021/03/22 05:40:07;;;;;;;41.25;9.93;;;;;;;;;;4993294;28;20042;-64
2021/03/22 05:42:45;;;;;;;27.60;8.15;;;;;;;;;;4992110;28;20113;-64
2021/03/22 05:45:16;;;;;;;28.77;8.68;;;;;;;;;;4993014;28;20508;-64
2021/03/22 05:47:49;;;;;;;42.20;9.80;;;;;;;;;;4993249;28;20034;-64
2021/03/22 05:50:18;;;;;;;28.35;8.30;;;;;;;;;;4993679;28;20464;-64
2021/03/22 05:53:02;;;;;;;33.53;9.20;;;;;;;;;;4992935;28;20041;-64
2021/03/22 05:55:58;;;;;;;34.08;9.43;;;;;;;;;;4995994;28;20043;-64
2021/03/22 05:58:23;;;;;;;30.77;8.27;;;;;;;;;;4988151;28;20388;-64
2021/03/22 06:01:04;;;;;;;23.27;9.07;;;;;;;;;;4997137;28;20049;-64
2021/03/22 06:03:41;;;;;;;25.00;8.75;;;;;;;;;;4996987;28;20069;-64
2021/03/22 06:06:06;;;;;;;23.30;7.75;;;;;;;;;;4996678;28;20077;-64
2021/03/22 06:08:38;;;;;;;34.88;10.02;;;;;;;;;;4996900;28;20046;-64
2021/03/22 06:11:08;;;;;;;25.48;8.13;;;;;;;;;;4996874;28;20037;-64
2021/03/22 06:13:36;;;;;;;25.85;9.05;;;;;;;;;;4977342;28;20027;-64
2021/03/22 06:16:08;;;;;;;25.40;8.80;;;;;;;;;;4977248;28;20043;-64
2021/03/22 06:18:35;;;;;;;32.80;9.30;;;;;;;;;;4977118;28;20117;-64
2021/03/22 06:21:03;;;;;;;32.40;8.93;;;;;;;;;;4977304;28;20046;-64
2021/03/22 06:23:35;;;;;;;44.42;9.63;;;;;;;;;;4977156;28;20092;-64
2021/03/22 06:26:01;;;;;;;36.60;9.30;;;;;;;;;;4977181;28;20022;-64
2021/03/22 06:28:28;;;;;;;31.95;10.30;;;;;;;;;;4977094;28;20042;-63
2021/03/22 06:31:10;;;;;;;31.70;9.77;;;;;;;;;;4976871;28;20679;-64
2021/03/22 06:33:58;;;;;;;38.40;8.38;;;;;;;;;;4977004;28;20037;-64
2021/03/22 06:36:24;;;;;;;27.70;9.13;;;;;;;;;;4976819;28;20037;-64
2021/03/22 06:38:54;;;;;;;35.35;9.27;;;;;;;;;;4976762;28;20054;-64
2021/03/22 06:41:38;;;;;;;30.88;8.77;;;;;;;;;;4976681;28;20045;-64
2021/03/22 06:44:05;;;;;;;20.95;8.27;;;;;;;;;;4976428;28;20404;-64
2021/03/22 06:46:31;;;;;;;28.77;9.90;;;;;;;;;;4976913;28;20502;-64
2021/03/22 06:48:58;;;;;;;24.80;9.00;;;;;;;;;;4976296;28;20022;-64
2021/03/22 06:51:24;;;;;;;28.60;7.95;;;;;;;;;;4976778;28;20165;-64
2021/03/22 06:53:51;;;;;;;34.42;8.43;;;;;;;;;;4976470;28;20113;-64
2021/03/22 06:56:39;;;;;;;32.97;8.50;;;;;;;;;;4976408;28;20456;-64
2021/03/22 06:59:11;;;;;;;30.35;8.45;;;;;;;;;;5007696;28;20833;-64
2021/03/22 07:01:37;;;;;;;30.90;9.60;;;;;;;;;;4976576;28;20385;-64
2021/03/22 07:04:21;;;;;;;43.42;10.02;;;;;;;;;;4986952;28;20034;-64
2021/03/22 07:07:04;;;;;;;32.55;9.90;;;;;;;;;;4975217;28;20019;-65
2021/03/22 07:09:35;;;;;;;19.65;8.60;;;;;;;;;;4976209;28;20399;-64
2021/03/22 07:12:00;;;;;;;26.08;8.93;;;;;;;;;;4983542;28;20029;-65
2021/03/22 07:14:27;;;;;;;20.50;7.65;;;;;;;;;;4995871;28;20030;-64
2021/03/22 07:17:14;;;;;;;24.52;8.27;;;;;;;;;;4995537;28;20058;-65
2021/03/22 07:19:40;;;;;;;28.70;8.75;;;;;;;;;;4995727;28;20034;-64
2021/03/22 07:22:16;;;;;;;31.20;8.98;;;;;;;;;;4995133;28;20045;-65
2021/03/22 07:24:45;;;;;;;25.67;8.77;;;;;;;;;;4995668;28;20019;-64
2021/03/22 07:27:17;;;;;;;28.23;8.27;;;;;;;;;;4994967;28;20491;-64
2021/03/22 07:29:47;;;;;;;39.65;9.73;;;;;;;;;;4995612;28;20420;-64
2021/03/22 07:32:12;;;;;;;27.65;8.98;;;;;;;;;;4992391;28;20039;-65
2021/03/22 07:35:07;;;;;;;21.65;9.25;;;;;;;;;;4989619;28;20019;-64
2021/03/22 07:37:38;;;;;;;25.63;8.57;;;;;;;;;;4970695;28;20587;-65
2021/03/22 07:40:06;;;;;;;24.02;7.57;;;;;;;;;;4975335;28;20038;-64
2021/03/22 07:42:37;;;;;;;28.98;9.13;;;;;;;;;;4975431;28;20046;-65
2021/03/22 07:45:21;;;;;;;23.55;8.05;;;;;;;;;;4975235;28;20500;-65
2021/03/22 07:48:03;;;;;;;28.92;8.27;;;;;;;;;;4975533;28;20038;-66
2021/03/22 07:50:34;;;;;;;29.70;8.73;;;;;;;;;;4975479;28;20039;-65
2021/03/22 07:53:08;;;;;;;25.67;8.30;;;;;;;;;;4974121;28;20038;-65
2021/03/22 07:55:33;;;;;;;25.90;7.90;;;;;;;;;;4975617;28;20031;-65
2021/03/22 07:58:17;;;;;;;26.63;8.18;;;;;;;;;;4974016;28;20094;-64
2021/03/22 08:00:56;;;;;;;25.42;8.15;;;;;;;;;;4975462;28;20041;-65
2021/03/22 08:03:24;;;;;;;30.70;7.80;;;;;;;;;;4975296;28;20039;-65
2021/03/22 08:05:53;;;;;;;17.58;7.45;;;;;;;;;;4975037;28;20494;-65
2021/03/22 08:08:25;;;;;;;22.55;7.68;;;;;;;;;;4975295;28;20035;-65
2021/03/22 08:11:08;;;;;;;19.23;7.28;;;;;;;;;;4975180;28;20113;-65
2021/03/22 08:13:34;;;;;;;22.73;8.05;;;;;;;;;;4981865;28;20124;-65
2021/03/22 08:16:05;;;;;;;19.65;7.72;;;;;;;;;;4981854;28;20054;-65
2021/03/22 08:18:31;;;;;;;21.98;8.00;;;;;;;;;;4982711;28;20049;-65
2021/03/22 08:21:06;;;;;;;20.60;7.60;;;;;;;;;;4987223;28;20019;-65
2021/03/22 08:23:42;;;;;;;25.65;9.27;;;;;;;;;;4984868;28;20049;-65
2021/03/22 08:26:12;;;;;;;21.02;7.25;;;;;;;;;;4986127;28;20030;-65
2021/03/22 08:28:43;;;;;;;26.48;7.80;;;;;;;;;;4976578;28;20031;-65
2021/03/22 08:31:20;;;;;;;23.20;7.95;;;;;;;;;;4974906;28;20065;-65
2021/03/22 08:34:01;;;;;;;24.85;7.10;;;;;;;;;;4974810;28;20069;-65
2021/03/22 08:36:57;;;;;;;27.50;8.50;;;;;;;;;;4974831;28;20046;-65
2021/03/22 08:39:25;;;;;;;21.38;8.23;;;;;;;;;;4959869;28;20097;-65
2021/03/22 08:41:54;;;;;;;24.98;8.45;;;;;;;;;;4991525;28;20038;-65
2021/03/22 08:44:24;;;;;;;22.30;8.63;;;;;;;;;;4991743;28;20088;-66
2021/03/22 08:47:10;;;;;;;27.95;11.68;;;;;;;;;;4991493;28;20085;-65
2021/03/22 08:49:55;;;;;;;23.52;11.35;;;;;;;;;;4990300;28;20507;-65
2021/03/22 08:52:26;;;;;;;22.67;12.18;;;;;;;;;;4991810;28;20085;-65
2021/03/22 08:55:04;;;;;;;19.77;10.32;;;;;;;;;;4991286;28;20088;-65
2021/03/22 08:57:31;;;;;;;22.50;7.38;;;;;;;;;;4990254;28;20026;-65
2021/03/22 09:00:09;;;;;;;24.00;8.40;;;;;;;;;;4991327;28;20597;-65
2021/03/22 09:02:35;;;;;;;29.63;7.72;;;;;;;;;;4981411;28;20498;-65
2021/03/22 09:05:15;;;;;;;14.00;6.30;;;;;;;;;;4980726;28;20105;-65
2021/03/22 09:07:40;;;;;;;14.38;5.65;;;;;;;;;;4972257;28;20376;-65
2021/03/22 09:10:25;;;;;;;13.85;6.03;;;;;;;;;;4983799;28;20043;-65
2021/03/22 09:12:51;;;;;;;16.83;5.55;;;;;;;;;;4991322;28;20046;-65
2021/03/22 09:15:22;;;;;;;11.52;4.70;;;;;;;;;;4990447;28;20097;-65
2021/03/22 09:17:48;;;;;;;16.02;4.65;;;;;;;;;;4991806;28;20708;-66
2021/03/22 09:20:16;;;;;;;20.15;4.80;;;;;;;;;;4995186;28;20026;-65
2021/03/22 09:22:52;;;;;;;11.57;4.22;;;;;;;;;;4990583;28;20030;-65
2021/03/22 09:25:56;;;;;;;11.57;3.95;;;;;;;;;;4993155;28;20018;-65
2021/03/22 09:28:30;;;;;;;12.50;4.10;;;;;;;;;;4947083;28;20043;-66
2021/03/22 09:31:03;;;;;;;16.67;4.38;;;;;;;;;;4988339;28;20034;-66
2021/03/22 09:33:58;;;;;;;10.27;4.30;;;;;;;;;;4994899;28;20033;-65
2021/03/22 09:36:24;;;;;;;12.77;3.80;;;;;;;;;;4987141;28;20057;-65
2021/03/22 09:38:49;;;;;;;13.60;3.25;;;;;;;;;;4993995;28;20447;-66
2021/03/22 09:41:15;;;;;;;12.88;3.90;;;;;;;;;;4979896;28;20364;-65
2021/03/22 09:43:42;;;;;;;12.20;3.65;;;;;;;;;;4972716;28;20053;-66
2021/03/22 09:46:24;;;;;;;12.30;3.85;;;;;;;;;;4994605;28;20133;-67
2021/03/22 09:49:07;;;;;;;11.60;3.90;;;;;;;;;;4987358;28;20041;-66
2021/03/22 09:51:33;;;;;;;10.93;3.33;;;;;;;;;;4989432;28;20121;-66
2021/03/22 09:54:01;;;;;;;10.40;4.10;;;;;;;;;;4989090;28;20034;-65
2021/03/22 09:56:31;;;;;;;11.95;3.90;;;;;;;;;;4989317;28;20066;-66
2021/03/22 09:59:30;;;;;;;11.05;3.63;;;;;;;;;;4988947;28;20077;-66
2021/03/22 10:01:57;;;;;;;9.60;3.45;;;;;;;;;;4987212;28;20539;-66
2021/03/22 10:04:33;;;;;;;10.95;3.90;;;;;;;;;;4989600;28;20041;-66
2021/03/22 10:06:58;;;;;;;11.68;3.78;;;;;;;;;;4985301;28;20027;-66
2021/03/22 10:09:27;;;;;;;21.13;3.58;;;;;;;;;;4987232;28;20038;-66
2021/03/22 10:11:53;;;;;;;12.60;4.07;;;;;;;;;;4988456;28;20030;-66
2021/03/22 10:14:20;;;;;;;16.08;3.78;;;;;;;;;;4974186;28;20053;-66
2021/03/22 10:16:47;;;;;;;11.32;3.30;;;;;;;;;;4987524;28;20042;-66
2021/03/22 10:19:15;;;;;;;10.88;3.80;;;;;;;;;;4988629;28;20038;-65
2021/03/22 10:21:45;;;;;;;7.88;2.90;;;;;;;;;;4988556;28;20029;-66
2021/03/22 10:24:13;;;;;;;10.60;3.63;;;;;;;;;;4987660;28;20115;-65
2021/03/22 10:26:40;;;;;;;8.10;3.67;;;;;;;;;;4988175;28;20062;-65
2021/03/22 10:29:25;;;;;;;11.93;3.78;;;;;;;;;;4987011;28;20508;-66
2021/03/22 10:31:56;;;;;;;14.25;3.47;;;;;;;;;;4988234;28;20037;-66
2021/03/22 10:34:23;;;;;;;11.35;4.05;;;;;;;;;;4982731;28;20519;-66
2021/03/22 10:36:48;;;;;;;7.43;3.70;;;;;;;;;;4985548;28;20038;-66
2021/03/22 10:39:31;;;;;;;10.32;3.50;;;;;;;;;;4987272;28;20042;-65
2021/03/22 10:41:57;;;;;;;7.63;3.20;;;;;;;;;;4968134;28;20067;-66
2021/03/22 10:44:25;;;;;;;10.50;3.58;;;;;;;;;;4973701;28;20050;-65
2021/03/22 10:47:14;;;;;;;15.70;3.83;;;;;;;;;;4992068;28;20025;-65
2021/03/22 10:49:40;;;;;;;10.38;4.15;;;;;;;;;;4992485;28;20030;-65
2021/03/22 10:52:38;;;;;;;10.18;3.40;;;;;;;;;;4980920;28;20416;-65
2021/03/22 10:55:04;;;;;;;13.48;3.25;;;;;;;;;;4985772;28;20077;-66
2021/03/22 10:57:32;;;;;;;10.32;3.08;;;;;;;;;;4988131;28;20501;-65
2021/03/22 10:59:59;;;;;;;14.05;3.78;;;;;;;;;;4988361;28;20045;-66
2021/03/22 11:02:34;;;;;;;9.93;3.30;;;;;;;;;;5003819;28;20036;-65
2021/03/22 11:05:05;;;;;;;7.93;4.35;;;;;;;;;;4998031;28;20045;-66
2021/03/22 11:07:30;;;;;;;13.30;5.00;;;;;;;;;;4989871;28;20052;-66
2021/03/22 11:10:14;;;;;;;9.35;3.33;;;;;;;;;;5002562;28;20459;-66
2021/03/22 11:12:43;;;;;;;7.72;2.55;;;;;;;;;;4987232;28;20464;-66
2021/03/22 11:15:15;;;;;;;9.15;2.85;;;;;;;;;;4997687;28;20045;-66
2021/03/22 11:17:46;;;;;;;10.30;2.78;;;;;;;;;;4998170;28;20974;-65
2021/03/22 11:20:13;;;;;;;5.45;3.03;;;;;;;;;;5003641;28;20295;-65
2021/03/22 11:22:40;;;;;;;7.75;3.13;;;;;;;;;;4994044;28;20120;-65
2021/03/22 11:25:24;;;;;;;9.50;3.60;;;;;;;;;;4998261;28;20030;-66
2021/03/22 11:28:04;;;;;;;10.25;3.42;;;;;;;;;;5004385;28;20034;-66
2021/03/22 11:30:31;;;;;;;7.47;2.97;;;;;;;;;;4977803;28;20393;-65
2021/03/22 11:32:57;;;;;;;8.68;2.88;;;;;;;;;;4999662;28;20117;-66
2021/03/22 11:35:27;;;;;;;8.45;2.85;;;;;;;;;;5000411;28;20104;-65
2021/03/22 11:37:54;;;;;;;10.30;2.80;;;;;;;;;;4991111;28;20050;-66
2021/03/22 11:40:24;;;;;;;9.88;2.63;;;;;;;;;;4971720;28;20035;-66
2021/03/22 11:42:57;;;;;;;12.27;3.45;;;;;;;;;;4994781;28;20097;-66
2021/03/22 11:45:33;;;;;;;7.95;2.90;;;;;;;;;;4987824;28;20445;-66
2021/03/22 11:47:59;;;;;;;9.23;2.78;;;;;;;;;;5005500;28;20108;-65
2021/03/22 11:50:33;;;;;;;7.05;2.55;;;;;;;;;;5000054;28;20022;-66
2021/03/22 11:53:19;;;;;;;7.50;2.55;;;;;;;;;;4986236;28;20030;-67
2021/03/22 11:56:17;;;;;;;8.05;2.88;;;;;;;;;;4994346;28;20034;-66
2021/03/22 11:58:43;;;;;;;8.18;4.22;;;;;;;;;;4976183;28;20041;-66
2021/03/22 12:01:22;;;;;;;8.38;2.55;;;;;;;;;;4993171;28;20088;-66
2021/03/22 12:03:48;;;;;;;7.20;2.72;;;;;;;;;;4998610;28;20048;-67
2021/03/22 12:06:15;;;;;;;12.30;2.88;;;;;;;;;;4987452;28;20038;-66
2021/03/22 12:08:42;;;;;;;8.93;2.70;;;;;;;;;;4996609;28;20397;-66
2021/03/22 12:11:22;;;;;;;12.48;3.47;;;;;;;;;;4986472;28;20030;-66
2021/03/22 12:13:48;;;;;;;10.80;2.92;;;;;;;;;;4998904;28;20096;-67
2021/03/22 12:16:22;;;;;;;6.95;2.83;;;;;;;;;;4987213;28;20045;-66
2021/03/22 12:18:48;;;;;;;10.55;2.90;;;;;;;;;;4994850;28;20714;-66
2021/03/22 12:21:14;;;;;;;11.00;4.22;;;;;;;;;;4984366;28;20018;-66
2021/03/22 12:23:40;;;;;;;10.85;4.53;;;;;;;;;;4997314;28;20057;-66
2021/03/22 12:26:05;;;;;;;17.02;4.47;;;;;;;;;;4980620;28;20030;-66
2021/03/22 12:28:31;;;;;;;15.63;5.75;;;;;;;;;;4994577;28;20025;-66
2021/03/22 12:30:56;;;;;;;14.35;4.13;;;;;;;;;;4985642;28;20033;-66
2021/03/22 12:33:30;;;;;;;9.38;3.03;;;;;;;;;;4993463;28;20030;-66
2021/03/22 12:35:58;;;;;;;8.05;2.67;;;;;;;;;;4984469;28;20030;-66
2021/03/22 12:38:24;;;;;;;9.55;2.35;;;;;;;;;;4996909;28;20042;-66
2021/03/22 12:40:49;;;;;;;6.55;2.72;;;;;;;;;;4987483;28;20064;-66
2021/03/22 12:43:26;;;;;;;6.65;2.33;;;;;;;;;;4988352;28;20117;-66
2021/03/22 12:45:51;;;;;;;8.60;2.40;;;;;;;;;;4995379;28;20058;-66
2021/03/22 12:48:17;;;;;;;7.28;2.38;;;;;;;;;;4995809;28;20018;-66
2021/03/22 12:50:44;;;;;;;6.30;2.20;;;;;;;;;;4987607;28;20112;-66
2021/03/22 12:53:09;;;;;;;8.50;2.25;;;;;;;;;;4989027;28;20117;-66
2021/03/22 12:55:35;;;;;;;10.00;2.30;;;;;;;;;;4984780;28;20193;-67
2021/03/22 12:58:02;;;;;;;5.32;2.13;;;;;;;;;;4996370;28;20049;-66
2021/03/22 13:00:28;;;;;;;6.63;2.10;;;;;;;;;;4984938;28;20934;-66
2021/03/22 13:02:54;;;;;;;7.97;2.28;;;;;;;;;;4992661;28;20029;-65
2021/03/22 13:05:27;;;;;;;8.68;2.60;;;;;;;;;;4999304;28;20475;-66
2021/03/22 13:07:53;;;;;;;4.38;2.13;;;;;;;;;;5000398;28;20073;-66
2021/03/22 13:10:23;;;;;;;9.57;2.58;;;;;;;;;;4984121;28;20064;-66
2021/03/22 13:12:49;;;;;;;8.48;2.50;;;;;;;;;;4988649;28;20038;-65
2021/03/22 13:15:35;;;;;;;11.15;2.92;;;;;;;;;;4995062;28;20042;-66
2021/03/22 13:18:01;;;;;;;7.90;2.53;;;;;;;;;;4996465;28;20046;-66
2021/03/22 13:20:28;;;;;;;7.22;2.67;;;;;;;;;;4988103;28;20025;-66
2021/03/22 13:22:53;;;;;;;8.98;2.17;;;;;;;;;;5002658;28;20029;-65
2021/03/22 13:25:19;;;;;;;13.32;3.83;;;;;;;;;;5003831;28;20030;-66
2021/03/22 13:27:47;;;;;;;6.55;2.00;;;;;;;;;;4988890;28;20545;-65
2021/03/22 13:30:16;;;;;;;6.55;2.50;;;;;;;;;;4999964;28;20017;-66
2021/03/22 13:32:41;;;;;;;7.30;2.33;;;;;;;;;;4989165;28;20350;-66
2021/03/22 13:35:07;;;;;;;11.43;2.53;;;;;;;;;;4993126;28;20537;-66
2021/03/22 13:37:32;;;;;;;8.25;2.75;;;;;;;;;;4996928;28;20337;-65
2021/03/22 13:39:57;;;;;;;7.38;2.42;;;;;;;;;;4987682;28;20498;-66
2021/03/22 13:42:23;;;;;;;8.38;3.10;;;;;;;;;;4998552;28;20122;-67
2021/03/22 13:44:49;;;;;;;7.60;2.40;;;;;;;;;;4990874;28;20052;-66
2021/03/22 13:47:14;;;;;;;4.43;2.28;;;;;;;;;;5002325;28;20345;-66
2021/03/22 13:49:40;;;;;;;11.43;2.83;;;;;;;;;;5003336;28;20092;-66
2021/03/22 13:52:08;;;;;;;13.00;4.80;;;;;;;;;;5001836;28;20017;-66
2021/03/22 13:54:34;;;;;;;12.77;3.25;;;;;;;;;;4983302;28;20027;-66
2021/03/22 13:56:59;;;;;;;9.85;3.03;;;;;;;;;;4984236;28;20043;-65
2021/03/22 13:59:26;;;;;;;9.18;2.65;;;;;;;;;;4983453;28;20519;-66
2021/03/22 14:01:52;;;;;;;9.68;2.60;;;;;;;;;;4984331;28;20644;-66
2021/03/22 14:04:18;;;;;;;11.48;2.55;;;;;;;;;;4996630;28;20042;-66
2021/03/22 14:06:44;;;;;;;9.40;2.90;;;;;;;;;;4996389;28;20045;-66
2021/03/22 14:09:09;;;;;;;12.48;2.83;;;;;;;;;;4993024;28;20112;-66
2021/03/22 14:11:34;;;;;;;6.22;2.63;;;;;;;;;;5004043;28;20041;-66
2021/03/22 14:14:00;;;;;;;7.53;3.05;;;;;;;;;;5001984;28;20342;-66
2021/03/22 14:16:26;;;;;;;12.55;2.78;;;;;;;;;;5005153;28;20066;-66
2021/03/22 14:18:51;;;;;;;7.35;2.88;;;;;;;;;;5006965;28;20479;-66
2021/03/22 14:21:17;;;;;;;10.50;2.70;;;;;;;;;;5006831;28;20368;-66
2021/03/22 14:23:43;;;;;;;11.70;4.18;;;;;;;;;;4990433;28;20103;-66
2021/03/22 14:26:09;;;;;;;16.25;9.55;;;;;;;;;;5002472;28;20038;-66
2021/03/22 14:28:34;;;;;;;11.65;7.47;;;;;;;;;;5001195;28;20379;-66
2021/03/22 14:31:00;;;;;;;18.42;11.73;;;;;;;;;;4996064;28;20030;-66
2021/03/22 14:33:26;;;;;;;14.63;8.18;;;;;;;;;;4993578;28;20573;-65
2021/03/22 14:35:52;;;;;;;13.73;5.90;;;;;;;;;;4986709;28;20033;-66
2021/03/22 14:38:18;;;;;;;12.15;5.90;;;;;;;;;;5003237;28;20026;-66
2021/03/22 14:40:43;;;;;;;10.68;4.80;;;;;;;;;;4993358;28;20494;-66
2021/03/22 14:43:09;;;;;;;7.85;4.45;;;;;;;;;;4995530;28;20031;-66
2021/03/22 14:45:34;;;;;;;12.60;4.40;;;;;;;;;;4999685;28;20073;-67